sensor_id;sensor_type;location;lat;lon;timestamp;P1;durP1;ratioP1;P2;durP2;ratioP2
76228;SDS011;65021;53.174;18.160;2023-09-08T00:02:11;11.70;;;8.40;;
76228;SDS011;65021;53.174;18.160;2023-09-08T00:04:38;13.00;;;7.20;;
76228;SDS011;65021;53.174;18.160;2023-09-08T00:07:05;11.20;;;6.60;;
76228;SDS011;65021;53.174;18.160;2023-09-08T00:09:31;10.80;;;5.60;;
76228;SDS011;65021;53.174;18.160;2023-09-08T00:11:58;10.20;;;6.60;;
76228;SDS011;65021;53.174;18.160;2023-09-08T00:14:25;12.00;;;6.70;;
76228;SDS011;65021;53.174;18.160;2023-09-08T00:16:52;10.80;;;7.30;;
76228;SDS011;65021;53.174;18.160;2023-09-08T00:19:22;11.00;;;6.60;;
76228;SDS011;65021;53.174;18.160;2023-09-08T00:21:49;12.80;;;8.30;;
76228;SDS011;65021;53.174;18.160;2023-09-08T00:24:16;10.00;;;6.30;;
76228;SDS011;65021;53.174;18.160;2023-09-08T00:26:43;11.90;;;8.10;;
76228;SDS011;65021;53.174;18.160;2023-09-08T00:29:10;11.50;;;7.20;;
76228;SDS011;65021;53.174;18.160;2023-09-08T00:31:37;10.80;;;7.50;;
76228;SDS011;65021;53.174;18.160;2023-09-08T00:34:03;11.70;;;7.50;;
76228;SDS011;65021;53.174;18.160;2023-09-08T00:36:30;13.00;;;7.70;;
76228;SDS011;65021;53.174;18.160;2023-09-08T00:38:57;11.60;;;7.00;;
76228;SDS011;65021;53.174;18.160;2023-09-08T00:41:23;10.10;;;7.00;;
76228;SDS011;65021;53.174;18.160;2023-09-08T00:43:50;12.70;;;7.00;;
76228;SDS011;65021;53.174;18.160;2023-09-08T00:46:17;11.60;;;7.70;;
76228;SDS011;65021;53.174;18.160;2023-09-08T00:48:44;11.10;;;7.90;;
76228;SDS011;65021;53.174;18.160;2023-09-08T00:51:11;12.20;;;8.10;;
76228;SDS011;65021;53.174;18.160;2023-09-08T00:53:37;11.40;;;7.70;;
76228;SDS011;65021;53.174;18.160;2023-09-08T00:56:04;12.90;;;7.70;;
76228;SDS011;65021;53.174;18.160;2023-09-08T00:58:30;12.90;;;7.70;;
76228;SDS011;65021;53.174;18.160;2023-09-08T01:00:58;12.90;;;8.40;;
76228;SDS011;65021;53.174;18.160;2023-09-08T01:03:24;12.40;;;8.50;;
76228;SDS011;65021;53.174;18.160;2023-09-08T01:05:51;13.60;;;7.40;;
76228;SDS011;65021;53.174;18.160;2023-09-08T01:08:18;13.30;;;8.30;;
76228;SDS011;65021;53.174;18.160;2023-09-08T01:10:46;10.90;;;8.20;;
76228;SDS011;65021;53.174;18.160;2023-09-08T01:13:12;13.10;;;8.10;;
76228;SDS011;65021;53.174;18.160;2023-09-08T01:15:39;13.00;;;7.80;;
76228;SDS011;65021;53.174;18.160;2023-09-08T01:18:06;13.50;;;8.70;;
76228;SDS011;65021;53.174;18.160;2023-09-08T01:20:59;13.50;;;8.30;;
76228;SDS011;65021;53.174;18.160;2023-09-08T01:26:29;12.60;;;8.40;;
76228;SDS011;65021;53.174;18.160;2023-09-08T01:29:01;13.80;;;9.30;;
76228;SDS011;65021;53.174;18.160;2023-09-08T01:31:31;13.20;;;8.50;;
76228;SDS011;65021;53.174;18.160;2023-09-08T01:33:58;15.40;;;8.90;;
76228;SDS011;65021;53.174;18.160;2023-09-08T01:36:27;15.50;;;10.20;;
76228;SDS011;65021;53.174;18.160;2023-09-08T01:38:53;13.00;;;8.50;;
76228;SDS011;65021;53.174;18.160;2023-09-08T01:41:20;14.90;;;9.30;;
76228;SDS011;65021;53.174;18.160;2023-09-08T01:43:47;14.10;;;9.60;;
76228;SDS011;65021;53.174;18.160;2023-09-08T01:46:13;12.80;;;9.50;;
76228;SDS011;65021;53.174;18.160;2023-09-08T01:48:39;12.50;;;9.50;;
76228;SDS011;65021;53.174;18.160;2023-09-08T01:51:06;15.40;;;9.30;;
76228;SDS011;65021;53.174;18.160;2023-09-08T01:53:32;15.30;;;10.20;;
76228;SDS011;65021;53.174;18.160;2023-09-08T01:56:00;18.30;;;12.80;;
76228;SDS011;65021;53.174;18.160;2023-09-08T01:58:27;17.10;;;10.40;;
76228;SDS011;65021;53.174;18.160;2023-09-08T02:00:53;15.50;;;9.50;;
76228;SDS011;65021;53.174;18.160;2023-09-08T02:03:20;14.70;;;10.00;;
76228;SDS011;65021;53.174;18.160;2023-09-08T02:05:46;14.50;;;10.10;;
76228;SDS011;65021;53.174;18.160;2023-09-08T02:08:13;15.30;;;10.30;;
76228;SDS011;65021;53.174;18.160;2023-09-08T02:10:41;14.40;;;9.20;;
76228;SDS011;65021;53.174;18.160;2023-09-08T02:13:07;17.90;;;11.00;;
76228;SDS011;65021;53.174;18.160;2023-09-08T02:15:35;14.80;;;9.80;;
76228;SDS011;65021;53.174;18.160;2023-09-08T02:18:02;16.60;;;11.30;;
76228;SDS011;65021;53.174;18.160;2023-09-08T02:20:29;17.30;;;10.40;;
76228;SDS011;65021;53.174;18.160;2023-09-08T02:22:56;15.20;;;10.80;;
76228;SDS011;65021;53.174;18.160;2023-09-08T02:25:24;15.00;;;10.40;;
76228;SDS011;65021;53.174;18.160;2023-09-08T02:27:50;17.00;;;11.20;;
76228;SDS011;65021;53.174;18.160;2023-09-08T02:30:17;14.90;;;10.90;;
76228;SDS011;65021;53.174;18.160;2023-09-08T02:32:43;16.60;;;10.80;;
76228;SDS011;65021;53.174;18.160;2023-09-08T02:35:10;16.00;;;10.50;;
76228;SDS011;65021;53.174;18.160;2023-09-08T02:37:37;19.20;;;11.90;;
76228;SDS011;65021;53.174;18.160;2023-09-08T02:40:04;18.30;;;11.30;;
76228;SDS011;65021;53.174;18.160;2023-09-08T02:42:32;14.20;;;9.80;;
76228;SDS011;65021;53.174;18.160;2023-09-08T02:44:58;17.60;;;11.10;;
76228;SDS011;65021;53.174;18.160;2023-09-08T02:47:25;14.50;;;10.40;;
76228;SDS011;65021;53.174;18.160;2023-09-08T02:49:51;17.70;;;12.10;;
76228;SDS011;65021;53.174;18.160;2023-09-08T02:52:18;14.60;;;10.20;;
76228;SDS011;65021;53.174;18.160;2023-09-08T02:54:45;17.80;;;11.50;;
76228;SDS011;65021;53.174;18.160;2023-09-08T02:57:12;15.50;;;11.10;;
76228;SDS011;65021;53.174;18.160;2023-09-08T02:59:38;17.80;;;11.20;;
76228;SDS011;65021;53.174;18.160;2023-09-08T03:02:05;17.30;;;11.40;;
76228;SDS011;65021;53.174;18.160;2023-09-08T03:04:31;16.00;;;11.10;;
76228;SDS011;65021;53.174;18.160;2023-09-08T03:06:58;15.70;;;10.00;;
76228;SDS011;65021;53.174;18.160;2023-09-08T03:09:24;15.70;;;11.10;;
76228;SDS011;65021;53.174;18.160;2023-09-08T03:11:51;17.90;;;12.10;;
76228;SDS011;65021;53.174;18.160;2023-09-08T03:14:17;19.30;;;12.30;;
76228;SDS011;65021;53.174;18.160;2023-09-08T03:16:44;19.50;;;12.80;;
76228;SDS011;65021;53.174;18.160;2023-09-08T03:19:10;17.50;;;11.60;;
76228;SDS011;65021;53.174;18.160;2023-09-08T03:21:37;17.90;;;12.00;;
76228;SDS011;65021;53.174;18.160;2023-09-08T03:24:04;18.40;;;12.00;;
76228;SDS011;65021;53.174;18.160;2023-09-08T03:26:31;19.50;;;13.80;;
76228;SDS011;65021;53.174;18.160;2023-09-08T03:28:58;19.30;;;12.40;;
76228;SDS011;65021;53.174;18.160;2023-09-08T03:31:24;17.50;;;11.90;;
76228;SDS011;65021;53.174;18.160;2023-09-08T03:33:52;17.60;;;12.10;;
76228;SDS011;65021;53.174;18.160;2023-09-08T03:36:18;20.20;;;12.60;;
76228;SDS011;65021;53.174;18.160;2023-09-08T03:38:45;18.70;;;12.70;;
76228;SDS011;65021;53.174;18.160;2023-09-08T03:41:11;18.80;;;12.50;;
76228;SDS011;65021;53.174;18.160;2023-09-08T03:43:38;18.30;;;13.30;;
76228;SDS011;65021;53.174;18.160;2023-09-08T03:46:11;16.20;;;11.70;;
76228;SDS011;65021;53.174;18.160;2023-09-08T03:48:38;15.60;;;10.70;;
76228;SDS011;65021;53.174;18.160;2023-09-08T03:51:05;19.20;;;12.60;;
76228;SDS011;65021;53.174;18.160;2023-09-08T03:53:31;16.30;;;12.10;;
76228;SDS011;65021;53.174;18.160;2023-09-08T03:55:58;15.20;;;10.70;;
76228;SDS011;65021;53.174;18.160;2023-09-08T03:58:24;16.00;;;11.40;;
76228;SDS011;65021;53.174;18.160;2023-09-08T04:00:51;16.20;;;11.10;;
76228;SDS011;65021;53.174;18.160;2023-09-08T04:03:17;16.90;;;9.70;;
76228;SDS011;65021;53.174;18.160;2023-09-08T04:05:44;18.70;;;12.30;;
76228;SDS011;65021;53.174;18.160;2023-09-08T04:08:10;17.40;;;11.80;;
76228;SDS011;65021;53.174;18.160;2023-09-08T04:10:37;17.40;;;11.90;;
76228;SDS011;65021;53.174;18.160;2023-09-08T04:13:04;17.00;;;10.50;;
76228;SDS011;65021;53.174;18.160;2023-09-08T04:15:30;19.00;;;11.70;;
76228;SDS011;65021;53.174;18.160;2023-09-08T04:17:57;18.60;;;12.30;;
76228;SDS011;65021;53.174;18.160;2023-09-08T04:20:24;16.80;;;11.20;;
76228;SDS011;65021;53.174;18.160;2023-09-08T04:22:51;15.60;;;10.80;;
76228;SDS011;65021;53.174;18.160;2023-09-08T04:25:18;16.60;;;11.80;;
76228;SDS011;65021;53.174;18.160;2023-09-08T04:27:44;15.30;;;9.50;;
76228;SDS011;65021;53.174;18.160;2023-09-08T04:30:11;15.50;;;11.00;;
76228;SDS011;65021;53.174;18.160;2023-09-08T04:32:38;14.80;;;10.50;;
76228;SDS011;65021;53.174;18.160;2023-09-08T04:35:05;15.90;;;11.30;;
76228;SDS011;65021;53.174;18.160;2023-09-08T04:37:32;16.90;;;11.20;;
76228;SDS011;65021;53.174;18.160;2023-09-08T04:39:58;15.50;;;10.30;;
76228;SDS011;65021;53.174;18.160;2023-09-08T04:42:25;15.40;;;10.40;;
76228;SDS011;65021;53.174;18.160;2023-09-08T04:44:51;15.70;;;9.80;;
76228;SDS011;65021;53.174;18.160;2023-09-08T04:47:18;14.70;;;10.00;;
76228;SDS011;65021;53.174;18.160;2023-09-08T04:49:45;13.20;;;9.70;;
76228;SDS011;65021;53.174;18.160;2023-09-08T04:52:11;16.20;;;10.20;;
76228;SDS011;65021;53.174;18.160;2023-09-08T04:54:38;13.50;;;9.50;;
76228;SDS011;65021;53.174;18.160;2023-09-08T04:57:05;11.00;;;7.60;;
76228;SDS011;65021;53.174;18.160;2023-09-08T04:59:32;12.40;;;8.50;;
76228;SDS011;65021;53.174;18.160;2023-09-08T05:01:58;11.00;;;7.80;;
76228;SDS011;65021;53.174;18.160;2023-09-08T05:04:25;13.50;;;8.60;;
76228;SDS011;65021;53.174;18.160;2023-09-08T05:06:52;14.20;;;8.30;;
76228;SDS011;65021;53.174;18.160;2023-09-08T05:09:18;14.40;;;8.90;;
76228;SDS011;65021;53.174;18.160;2023-09-08T05:11:45;12.80;;;8.60;;
76228;SDS011;65021;53.174;18.160;2023-09-08T05:14:11;14.30;;;10.40;;
76228;SDS011;65021;53.174;18.160;2023-09-08T05:16:38;13.40;;;9.30;;
76228;SDS011;65021;53.174;18.160;2023-09-08T05:19:16;14.80;;;11.00;;
76228;SDS011;65021;53.174;18.160;2023-09-08T05:21:42;12.40;;;9.40;;
76228;SDS011;65021;53.174;18.160;2023-09-08T05:24:09;14.20;;;10.90;;
76228;SDS011;65021;53.174;18.160;2023-09-08T05:26:36;12.70;;;9.90;;
76228;SDS011;65021;53.174;18.160;2023-09-08T05:29:04;11.80;;;9.30;;
76228;SDS011;65021;53.174;18.160;2023-09-08T05:31:31;14.40;;;10.10;;
76228;SDS011;65021;53.174;18.160;2023-09-08T05:33:57;13.20;;;8.60;;
76228;SDS011;65021;53.174;18.160;2023-09-08T05:36:24;15.90;;;10.00;;
76228;SDS011;65021;53.174;18.160;2023-09-08T05:38:51;13.80;;;9.20;;
76228;SDS011;65021;53.174;18.160;2023-09-08T05:41:17;13.00;;;9.30;;
76228;SDS011;65021;53.174;18.160;2023-09-08T05:43:44;11.00;;;9.30;;
76228;SDS011;65021;53.174;18.160;2023-09-08T05:46:10;10.10;;;8.60;;
76228;SDS011;65021;53.174;18.160;2023-09-08T05:48:37;12.60;;;8.20;;
76228;SDS011;65021;53.174;18.160;2023-09-08T05:51:03;12.60;;;8.60;;
76228;SDS011;65021;53.174;18.160;2023-09-08T05:53:32;11.30;;;8.00;;
76228;SDS011;65021;53.174;18.160;2023-09-08T05:55:59;10.30;;;8.00;;
76228;SDS011;65021;53.174;18.160;2023-09-08T05:58:26;12.30;;;7.70;;
76228;SDS011;65021;53.174;18.160;2023-09-08T06:00:53;11.40;;;7.70;;
76228;SDS011;65021;53.174;18.160;2023-09-08T06:03:20;9.70;;;7.40;;
76228;SDS011;65021;53.174;18.160;2023-09-08T06:05:47;10.90;;;7.80;;
76228;SDS011;65021;53.174;18.160;2023-09-08T06:08:13;12.20;;;7.50;;
76228;SDS011;65021;53.174;18.160;2023-09-08T06:10:40;11.20;;;7.90;;
76228;SDS011;65021;53.174;18.160;2023-09-08T06:13:06;10.50;;;7.90;;
76228;SDS011;65021;53.174;18.160;2023-09-08T06:15:33;12.00;;;7.70;;
76228;SDS011;65021;53.174;18.160;2023-09-08T06:18:00;9.10;;;7.30;;
76228;SDS011;65021;53.174;18.160;2023-09-08T06:20:27;10.30;;;7.90;;
76228;SDS011;65021;53.174;18.160;2023-09-08T06:22:54;9.20;;;7.70;;
76228;SDS011;65021;53.174;18.160;2023-09-08T06:25:20;10.30;;;6.70;;
76228;SDS011;65021;53.174;18.160;2023-09-08T06:27:47;9.00;;;7.20;;
76228;SDS011;65021;53.174;18.160;2023-09-08T06:30:14;9.90;;;7.30;;
76228;SDS011;65021;53.174;18.160;2023-09-08T06:32:42;11.40;;;7.00;;
76228;SDS011;65021;53.174;18.160;2023-09-08T06:35:08;9.50;;;6.70;;
76228;SDS011;65021;53.174;18.160;2023-09-08T06:37:36;12.00;;;7.60;;
76228;SDS011;65021;53.174;18.160;2023-09-08T06:40:03;9.90;;;7.20;;
76228;SDS011;65021;53.174;18.160;2023-09-08T06:42:31;9.40;;;6.00;;
76228;SDS011;65021;53.174;18.160;2023-09-08T06:44:58;9.30;;;6.40;;
76228;SDS011;65021;53.174;18.160;2023-09-08T06:47:25;9.70;;;7.10;;
76228;SDS011;65021;53.174;18.160;2023-09-08T06:49:52;8.40;;;6.50;;
76228;SDS011;65021;53.174;18.160;2023-09-08T06:52:18;10.10;;;7.00;;
76228;SDS011;65021;53.174;18.160;2023-09-08T06:54:45;10.30;;;7.20;;
76228;SDS011;65021;53.174;18.160;2023-09-08T06:57:12;10.40;;;7.20;;
76228;SDS011;65021;53.174;18.160;2023-09-08T06:59:39;9.50;;;6.50;;
76228;SDS011;65021;53.174;18.160;2023-09-08T07:02:06;10.40;;;7.00;;
76228;SDS011;65021;53.174;18.160;2023-09-08T07:04:33;11.80;;;6.10;;
76228;SDS011;65021;53.174;18.160;2023-09-08T07:07:00;11.60;;;7.60;;
76228;SDS011;65021;53.174;18.160;2023-09-08T07:09:36;9.80;;;6.20;;
76228;SDS011;65021;53.174;18.160;2023-09-08T07:12:03;14.00;;;7.20;;
76228;SDS011;65021;53.174;18.160;2023-09-08T07:14:31;11.20;;;7.40;;
76228;SDS011;65021;53.174;18.160;2023-09-08T07:16:58;11.00;;;7.10;;
76228;SDS011;65021;53.174;18.160;2023-09-08T07:19:25;12.50;;;6.60;;
76228;SDS011;65021;53.174;18.160;2023-09-08T07:21:52;10.00;;;6.60;;
76228;SDS011;65021;53.174;18.160;2023-09-08T07:24:19;10.60;;;7.30;;
76228;SDS011;65021;53.174;18.160;2023-09-08T07:26:45;11.10;;;7.20;;
76228;SDS011;65021;53.174;18.160;2023-09-08T07:29:12;12.40;;;7.20;;
76228;SDS011;65021;53.174;18.160;2023-09-08T07:31:39;12.40;;;7.00;;
76228;SDS011;65021;53.174;18.160;2023-09-08T07:34:05;11.70;;;7.20;;
76228;SDS011;65021;53.174;18.160;2023-09-08T07:36:32;15.70;;;7.40;;
76228;SDS011;65021;53.174;18.160;2023-09-08T07:38:59;13.70;;;7.50;;
76228;SDS011;65021;53.174;18.160;2023-09-08T07:41:25;11.90;;;7.60;;
76228;SDS011;65021;53.174;18.160;2023-09-08T07:43:52;10.80;;;7.10;;
76228;SDS011;65021;53.174;18.160;2023-09-08T07:46:18;10.80;;;7.10;;
76228;SDS011;65021;53.174;18.160;2023-09-08T07:48:45;12.40;;;6.90;;
76228;SDS011;65021;53.174;18.160;2023-09-08T07:51:11;12.50;;;7.20;;
76228;SDS011;65021;53.174;18.160;2023-09-08T07:53:38;12.60;;;7.60;;
76228;SDS011;65021;53.174;18.160;2023-09-08T07:56:05;13.80;;;7.20;;
76228;SDS011;65021;53.174;18.160;2023-09-08T07:58:32;11.50;;;6.50;;
76228;SDS011;65021;53.174;18.160;2023-09-08T08:00:58;12.50;;;7.50;;
76228;SDS011;65021;53.174;18.160;2023-09-08T08:03:25;13.20;;;6.80;;
76228;SDS011;65021;53.174;18.160;2023-09-08T08:05:52;9.30;;;6.20;;
76228;SDS011;65021;53.174;18.160;2023-09-08T08:08:19;17.00;;;5.80;;
76228;SDS011;65021;53.174;18.160;2023-09-08T08:10:45;11.60;;;5.80;;
76228;SDS011;65021;53.174;18.160;2023-09-08T08:13:12;9.50;;;5.70;;
76228;SDS011;65021;53.174;18.160;2023-09-08T08:15:39;10.10;;;5.60;;
76228;SDS011;65021;53.174;18.160;2023-09-08T08:18:08;10.60;;;5.70;;
76228;SDS011;65021;53.174;18.160;2023-09-08T08:20:37;10.20;;;5.40;;
76228;SDS011;65021;53.174;18.160;2023-09-08T08:23:05;10.90;;;5.70;;
76228;SDS011;65021;53.174;18.160;2023-09-08T08:25:32;9.00;;;5.00;;
76228;SDS011;65021;53.174;18.160;2023-09-08T08:27:59;9.90;;;5.30;;
76228;SDS011;65021;53.174;18.160;2023-09-08T08:30:27;7.50;;;4.30;;
76228;SDS011;65021;53.174;18.160;2023-09-08T08:32:54;8.40;;;4.70;;
76228;SDS011;65021;53.174;18.160;2023-09-08T08:35:20;6.30;;;3.60;;
76228;SDS011;65021;53.174;18.160;2023-09-08T08:37:47;7.10;;;4.50;;
76228;SDS011;65021;53.174;18.160;2023-09-08T08:40:14;7.40;;;3.80;;
76228;SDS011;65021;53.174;18.160;2023-09-08T08:42:41;6.80;;;3.50;;
76228;SDS011;65021;53.174;18.160;2023-09-08T08:45:08;5.80;;;3.40;;
76228;SDS011;65021;53.174;18.160;2023-09-08T08:47:35;8.50;;;4.00;;
76228;SDS011;65021;53.174;18.160;2023-09-08T08:50:02;9.40;;;4.50;;
76228;SDS011;65021;53.174;18.160;2023-09-08T08:52:30;6.90;;;4.40;;
76228;SDS011;65021;53.174;18.160;2023-09-08T08:54:56;6.20;;;4.20;;
76228;SDS011;65021;53.174;18.160;2023-09-08T08:57:23;8.70;;;4.30;;
76228;SDS011;65021;53.174;18.160;2023-09-08T08:59:53;8.00;;;4.00;;
76228;SDS011;65021;53.174;18.160;2023-09-08T09:02:20;7.60;;;4.30;;
76228;SDS011;65021;53.174;18.160;2023-09-08T09:04:48;9.40;;;4.00;;
76228;SDS011;65021;53.174;18.160;2023-09-08T09:07:15;5.10;;;3.30;;
76228;SDS011;65021;53.174;18.160;2023-09-08T09:09:44;7.50;;;4.30;;
76228;SDS011;65021;53.174;18.160;2023-09-08T09:12:11;7.30;;;3.90;;
76228;SDS011;65021;53.174;18.160;2023-09-08T09:14:37;10.10;;;3.20;;
76228;SDS011;65021;53.174;18.160;2023-09-08T09:17:04;7.00;;;3.70;;
76228;SDS011;65021;53.174;18.160;2023-09-08T09:19:31;5.20;;;3.30;;
76228;SDS011;65021;53.174;18.160;2023-09-08T09:21:58;6.50;;;3.30;;
76228;SDS011;65021;53.174;18.160;2023-09-08T09:24:32;6.50;;;3.50;;
76228;SDS011;65021;53.174;18.160;2023-09-08T09:27:01;6.70;;;3.90;;
76228;SDS011;65021;53.174;18.160;2023-09-08T09:29:28;7.40;;;3.50;;
76228;SDS011;65021;53.174;18.160;2023-09-08T09:32:07;5.90;;;3.40;;
76228;SDS011;65021;53.174;18.160;2023-09-08T09:34:37;5.80;;;3.30;;
76228;SDS011;65021;53.174;18.160;2023-09-08T09:37:17;6.40;;;3.50;;
76228;SDS011;65021;53.174;18.160;2023-09-08T09:39:48;6.30;;;3.70;;
76228;SDS011;65021;53.174;18.160;2023-09-08T09:42:18;5.60;;;3.50;;
76228;SDS011;65021;53.174;18.160;2023-09-08T09:44:48;10.10;;;3.80;;
76228;SDS011;65021;53.174;18.160;2023-09-08T09:47:15;7.50;;;3.90;;
76228;SDS011;65021;53.174;18.160;2023-09-08T09:49:46;7.00;;;3.10;;
76228;SDS011;65021;53.174;18.160;2023-09-08T09:52:23;6.50;;;3.30;;
76228;SDS011;65021;53.174;18.160;2023-09-08T09:54:52;6.00;;;3.20;;
76228;SDS011;65021;53.174;18.160;2023-09-08T09:59:48;6.60;;;3.40;;
76228;SDS011;65021;53.174;18.160;2023-09-08T10:02:17;6.50;;;3.00;;
76228;SDS011;65021;53.174;18.160;2023-09-08T10:04:48;7.60;;;3.30;;
76228;SDS011;65021;53.174;18.160;2023-09-08T10:07:17;5.40;;;3.30;;
76228;SDS011;65021;53.174;18.160;2023-09-08T10:09:44;6.20;;;3.30;;
76228;SDS011;65021;53.174;18.160;2023-09-08T10:12:12;5.50;;;3.00;;
76228;SDS011;65021;53.174;18.160;2023-09-08T10:14:42;4.60;;;2.80;;
76228;SDS011;65021;53.174;18.160;2023-09-08T10:17:11;4.50;;;3.00;;
76228;SDS011;65021;53.174;18.160;2023-09-08T10:19:43;4.50;;;3.00;;
76228;SDS011;65021;53.174;18.160;2023-09-08T10:22:15;5.30;;;3.30;;
76228;SDS011;65021;53.174;18.160;2023-09-08T10:24:46;5.60;;;3.40;;
76228;SDS011;65021;53.174;18.160;2023-09-08T10:27:14;5.60;;;3.30;;
76228;SDS011;65021;53.174;18.160;2023-09-08T10:29:41;6.40;;;4.20;;
76228;SDS011;65021;53.174;18.160;2023-09-08T10:32:08;7.10;;;4.00;;
76228;SDS011;65021;53.174;18.160;2023-09-08T10:34:36;5.10;;;3.60;;
76228;SDS011;65021;53.174;18.160;2023-09-08T10:37:03;6.10;;;3.40;;
76228;SDS011;65021;53.174;18.160;2023-09-08T10:39:47;73.50;;;10.00;;
76228;SDS011;65021;53.174;18.160;2023-09-08T10:44:43;8.20;;;3.80;;
76228;SDS011;65021;53.174;18.160;2023-09-08T10:47:10;6.90;;;3.80;;
76228;SDS011;65021;53.174;18.160;2023-09-08T10:49:37;6.80;;;3.60;;
76228;SDS011;65021;53.174;18.160;2023-09-08T10:52:08;7.40;;;3.60;;
76228;SDS011;65021;53.174;18.160;2023-09-08T10:54:41;9.40;;;3.60;;
76228;SDS011;65021;53.174;18.160;2023-09-08T10:57:15;5.30;;;3.60;;
76228;SDS011;65021;53.174;18.160;2023-09-08T10:59:58;5.60;;;3.60;;
76228;SDS011;65021;53.174;18.160;2023-09-08T11:05:08;6.40;;;3.90;;
76228;SDS011;65021;53.174;18.160;2023-09-08T11:07:37;5.80;;;3.60;;
76228;SDS011;65021;53.174;18.160;2023-09-08T11:10:05;6.20;;;3.90;;
76228;SDS011;65021;53.174;18.160;2023-09-08T11:12:33;5.70;;;3.20;;
76228;SDS011;65021;53.174;18.160;2023-09-08T11:15:01;5.80;;;3.10;;
76228;SDS011;65021;53.174;18.160;2023-09-08T11:17:31;6.40;;;3.30;;
76228;SDS011;65021;53.174;18.160;2023-09-08T11:19:58;6.50;;;3.70;;
76228;SDS011;65021;53.174;18.160;2023-09-08T11:22:25;5.90;;;3.70;;
76228;SDS011;65021;53.174;18.160;2023-09-08T11:24:52;7.80;;;3.70;;
76228;SDS011;65021;53.174;18.160;2023-09-08T11:27:22;6.40;;;3.30;;
76228;SDS011;65021;53.174;18.160;2023-09-08T11:29:50;6.20;;;3.50;;
76228;SDS011;65021;53.174;18.160;2023-09-08T11:32:17;6.60;;;3.30;;
76228;SDS011;65021;53.174;18.160;2023-09-08T11:34:43;5.50;;;3.80;;
76228;SDS011;65021;53.174;18.160;2023-09-08T11:37:10;5.90;;;3.80;;
76228;SDS011;65021;53.174;18.160;2023-09-08T11:39:39;6.90;;;3.50;;
76228;SDS011;65021;53.174;18.160;2023-09-08T11:42:10;6.10;;;3.40;;
76228;SDS011;65021;53.174;18.160;2023-09-08T11:44:38;22.10;;;4.40;;
76228;SDS011;65021;53.174;18.160;2023-09-08T11:47:06;10.90;;;3.70;;
76228;SDS011;65021;53.174;18.160;2023-09-08T11:49:37;6.50;;;3.50;;
76228;SDS011;65021;53.174;18.160;2023-09-08T11:52:05;6.60;;;4.10;;
76228;SDS011;65021;53.174;18.160;2023-09-08T11:54:36;6.70;;;3.60;;
76228;SDS011;65021;53.174;18.160;2023-09-08T11:57:06;8.40;;;3.80;;
76228;SDS011;65021;53.174;18.160;2023-09-08T11:59:35;7.10;;;4.10;;
76228;SDS011;65021;53.174;18.160;2023-09-08T12:02:01;6.20;;;3.30;;
76228;SDS011;65021;53.174;18.160;2023-09-08T12:04:28;7.90;;;4.00;;
76228;SDS011;65021;53.174;18.160;2023-09-08T12:06:55;8.20;;;3.80;;
76228;SDS011;65021;53.174;18.160;2023-09-08T12:09:24;7.70;;;3.80;;
76228;SDS011;65021;53.174;18.160;2023-09-08T12:11:51;34.70;;;6.10;;
76228;SDS011;65021;53.174;18.160;2023-09-08T12:14:18;7.00;;;3.80;;
76228;SDS011;65021;53.174;18.160;2023-09-08T12:16:44;5.50;;;3.70;;
76228;SDS011;65021;53.174;18.160;2023-09-08T12:19:29;5.40;;;3.10;;
76228;SDS011;65021;53.174;18.160;2023-09-08T12:22:00;8.40;;;3.50;;
76228;SDS011;65021;53.174;18.160;2023-09-08T12:24:48;5.80;;;3.60;;
76228;SDS011;65021;53.174;18.160;2023-09-08T12:27:17;6.10;;;3.90;;
76228;SDS011;65021;53.174;18.160;2023-09-08T12:29:51;5.20;;;3.40;;
76228;SDS011;65021;53.174;18.160;2023-09-08T12:32:31;6.70;;;3.80;;
76228;SDS011;65021;53.174;18.160;2023-09-08T12:34:58;6.10;;;3.60;;
76228;SDS011;65021;53.174;18.160;2023-09-08T12:37:27;7.00;;;3.40;;
76228;SDS011;65021;53.174;18.160;2023-09-08T12:39:55;9.10;;;3.30;;
76228;SDS011;65021;53.174;18.160;2023-09-08T12:42:22;6.10;;;3.60;;
76228;SDS011;65021;53.174;18.160;2023-09-08T12:44:52;6.30;;;4.00;;
76228;SDS011;65021;53.174;18.160;2023-09-08T12:47:19;7.40;;;3.60;;
76228;SDS011;65021;53.174;18.160;2023-09-08T12:49:46;8.00;;;3.80;;
76228;SDS011;65021;53.174;18.160;2023-09-08T12:52:12;5.30;;;3.40;;
76228;SDS011;65021;53.174;18.160;2023-09-08T12:54:39;6.40;;;3.60;;
76228;SDS011;65021;53.174;18.160;2023-09-08T12:57:05;6.00;;;3.00;;
76228;SDS011;65021;53.174;18.160;2023-09-08T12:59:32;5.40;;;3.40;;
76228;SDS011;65021;53.174;18.160;2023-09-08T13:01:58;5.20;;;3.30;;
76228;SDS011;65021;53.174;18.160;2023-09-08T13:04:25;5.90;;;3.60;;
76228;SDS011;65021;53.174;18.160;2023-09-08T13:06:55;5.10;;;3.20;;
76228;SDS011;65021;53.174;18.160;2023-09-08T13:09:22;7.30;;;3.60;;
76228;SDS011;65021;53.174;18.160;2023-09-08T13:11:49;7.80;;;3.70;;
76228;SDS011;65021;53.174;18.160;2023-09-08T13:14:17;7.30;;;4.00;;
76228;SDS011;65021;53.174;18.160;2023-09-08T13:16:44;7.20;;;3.40;;
76228;SDS011;65021;53.174;18.160;2023-09-08T13:19:11;6.60;;;3.70;;
76228;SDS011;65021;53.174;18.160;2023-09-08T13:21:38;6.20;;;3.50;;
76228;SDS011;65021;53.174;18.160;2023-09-08T13:24:06;7.30;;;3.60;;
76228;SDS011;65021;53.174;18.160;2023-09-08T13:26:33;17.30;;;4.90;;
76228;SDS011;65021;53.174;18.160;2023-09-08T13:29:00;5.90;;;3.70;;
76228;SDS011;65021;53.174;18.160;2023-09-08T13:31:27;6.50;;;3.60;;
76228;SDS011;65021;53.174;18.160;2023-09-08T13:33:54;6.70;;;3.80;;
76228;SDS011;65021;53.174;18.160;2023-09-08T13:36:20;11.40;;;4.50;;
76228;SDS011;65021;53.174;18.160;2023-09-08T13:38:46;5.20;;;3.40;;
76228;SDS011;65021;53.174;18.160;2023-09-08T13:41:13;5.80;;;3.10;;
76228;SDS011;65021;53.174;18.160;2023-09-08T13:43:39;9.20;;;3.40;;
76228;SDS011;65021;53.174;18.160;2023-09-08T13:46:06;5.50;;;2.90;;
76228;SDS011;65021;53.174;18.160;2023-09-08T13:48:32;6.90;;;3.50;;
76228;SDS011;65021;53.174;18.160;2023-09-08T13:51:02;6.40;;;4.00;;
76228;SDS011;65021;53.174;18.160;2023-09-08T13:53:29;5.90;;;3.40;;
76228;SDS011;65021;53.174;18.160;2023-09-08T13:56:01;5.10;;;3.00;;
76228;SDS011;65021;53.174;18.160;2023-09-08T13:58:28;5.70;;;3.40;;
76228;SDS011;65021;53.174;18.160;2023-09-08T14:00:55;6.80;;;4.10;;
76228;SDS011;65021;53.174;18.160;2023-09-08T14:03:21;5.50;;;3.60;;
76228;SDS011;65021;53.174;18.160;2023-09-08T14:05:48;7.20;;;3.80;;
76228;SDS011;65021;53.174;18.160;2023-09-08T14:08:15;7.60;;;3.80;;
76228;SDS011;65021;53.174;18.160;2023-09-08T14:10:41;6.90;;;3.40;;
76228;SDS011;65021;53.174;18.160;2023-09-08T14:13:08;6.10;;;4.30;;
76228;SDS011;65021;53.174;18.160;2023-09-08T14:15:34;7.60;;;3.70;;
76228;SDS011;65021;53.174;18.160;2023-09-08T14:18:01;7.70;;;3.40;;
76228;SDS011;65021;53.174;18.160;2023-09-08T14:20:27;7.00;;;3.70;;
76228;SDS011;65021;53.174;18.160;2023-09-08T14:22:54;9.30;;;3.60;;
76228;SDS011;65021;53.174;18.160;2023-09-08T14:25:21;6.50;;;3.50;;
76228;SDS011;65021;53.174;18.160;2023-09-08T14:27:47;6.70;;;3.20;;
76228;SDS011;65021;53.174;18.160;2023-09-08T14:30:14;6.80;;;3.50;;
76228;SDS011;65021;53.174;18.160;2023-09-08T14:32:40;6.30;;;3.80;;
76228;SDS011;65021;53.174;18.160;2023-09-08T14:35:07;6.20;;;3.20;;
76228;SDS011;65021;53.174;18.160;2023-09-08T14:37:33;7.90;;;3.60;;